sensor_id;sensor_type;location;lat;lon;timestamp;pressure;altitude;pressure_sealevel;temperature;humidity
34506;BME280;20748;42.632;23.198;2022-11-20T00:01:55;91339.16;;;15.09;74.50
34506;BME280;20748;42.632;23.198;2022-11-20T00:04:27;91338.69;;;15.03;74.73
34506;BME280;20748;42.632;23.198;2022-11-20T00:07:00;91336.19;;;15.10;75.18
34506;BME280;20748;42.632;23.198;2022-11-20T00:09:33;91329.44;;;15.09;74.94
34506;BME280;20748;42.632;23.198;2022-11-20T00:12:05;91317.03;;;15.10;74.69
34506;BME280;20748;42.632;23.198;2022-11-20T00:14:38;91314.84;;;15.12;74.61
34506;BME280;20748;42.632;23.198;2022-11-20T00:17:11;91286.53;;;15.05;73.63
34506;BME280;20748;42.632;23.198;2022-11-20T00:19:43;91296.88;;;15.14;73.78
34506;BME280;20748;42.632;23.198;2022-11-20T00:22:16;91319.25;;;15.08;74.04
34506;BME280;20748;42.632;23.198;2022-11-20T00:24:49;91310.06;;;15.17;73.67
34506;BME280;20748;42.632;23.198;2022-11-20T00:27:21;91294.25;;;15.14;74.13
34506;BME280;20748;42.632;23.198;2022-11-20T00:29:53;91292.31;;;15.11;74.25
34506;BME280;20748;42.632;23.198;2022-11-20T00:32:26;91299.50;;;15.14;74.57
34506;BME280;20748;42.632;23.198;2022-11-20T00:34:58;91293.75;;;15.08;74.70
34506;BME280;20748;42.632;23.198;2022-11-20T00:37:31;91302.94;;;14.98;74.95
34506;BME280;20748;42.632;23.198;2022-11-20T00:40:05;91298.44;;;14.99;75.24
34506;BME280;20748;42.632;23.198;2022-11-20T00:42:38;91309.28;;;14.97;75.67
34506;BME280;20748;42.632;23.198;2022-11-20T00:45:10;91315.38;;;15.01;75.79
34506;BME280;20748;42.632;23.198;2022-11-20T00:47:42;91319.94;;;15.05;75.46
34506;BME280;20748;42.632;23.198;2022-11-20T00:50:15;91331.34;;;15.12;75.14
34506;BME280;20748;42.632;23.198;2022-11-20T00:52:47;91323.31;;;15.05;75.37
34506;BME280;20748;42.632;23.198;2022-11-20T00:55:20;91342.03;;;15.03;75.60
34506;BME280;20748;42.632;23.198;2022-11-20T00:57:53;91325.69;;;15.10;74.95
34506;BME280;20748;42.632;23.198;2022-11-20T01:00:25;91337.75;;;14.95;75.63
34506;BME280;20748;42.632;23.198;2022-11-20T01:02:57;91348.78;;;15.01;75.89
34506;BME280;20748;42.632;23.198;2022-11-20T01:05:34;91315.22;;;14.94;76.13
34506;BME280;20748;42.632;23.198;2022-11-20T01:08:06;91320.41;;;14.90;76.79
34506;BME280;20748;42.632;23.198;2022-11-20T01:10:39;91310.56;;;14.87;76.59
34506;BME280;20748;42.632;23.198;2022-11-20T01:13:11;91323.44;;;14.93;76.31
34506;BME280;20748;42.632;23.198;2022-11-20T01:16:03;91313.38;;;14.79;76.89
34506;BME280;20748;42.632;23.198;2022-11-20T01:18:36;91294.63;;;14.96;75.77
34506;BME280;20748;42.632;23.198;2022-11-20T01:21:10;91295.25;;;14.89;75.36
34506;BME280;20748;42.632;23.198;2022-11-20T01:23:43;91296.06;;;14.94;75.01
34506;BME280;20748;42.632;23.198;2022-11-20T01:26:19;91303.00;;;14.86;75.05
34506;BME280;20748;42.632;23.198;2022-11-20T01:28:51;91286.22;;;15.07;74.23
34506;BME280;20748;42.632;23.198;2022-11-20T01:31:25;91266.97;;;15.02;73.46
34506;BME280;20748;42.632;23.198;2022-11-20T01:33:59;91271.56;;;15.06;73.44
34506;BME280;20748;42.632;23.198;2022-11-20T01:36:33;91268.09;;;15.01;73.41
34506;BME280;20748;42.632;23.198;2022-11-20T01:39:11;91266.19;;;15.18;73.11
34506;BME280;20748;42.632;23.198;2022-11-20T01:41:46;91269.19;;;15.00;73.57
34506;BME280;20748;42.632;23.198;2022-11-20T01:44:53;91263.16;;;15.00;73.38
34506;BME280;20748;42.632;23.198;2022-11-20T01:47:32;91268.16;;;15.05;72.96
34506;BME280;20748;42.632;23.198;2022-11-20T01:50:10;91280.31;;;14.94;73.54
34506;BME280;20748;42.632;23.198;2022-11-20T01:52:48;91275.47;;;14.96;73.18
34506;BME280;20748;42.632;23.198;2022-11-20T01:55:25;91281.38;;;15.09;72.83
34506;BME280;20748;42.632;23.198;2022-11-20T01:57:59;91271.97;;;15.08;72.89
34506;BME280;20748;42.632;23.198;2022-11-20T02:00:33;91286.34;;;15.14;72.17
34506;BME280;20748;42.632;23.198;2022-11-20T02:03:08;91296.91;;;14.98;72.73
34506;BME280;20748;42.632;23.198;2022-11-20T02:05:45;91301.78;;;15.15;72.06
34506;BME280;20748;42.632;23.198;2022-11-20T02:08:19;91309.09;;;15.06;72.55
34506;BME280;20748;42.632;23.198;2022-11-20T02:10:52;91299.56;;;15.17;71.88
34506;BME280;20748;42.632;23.198;2022-11-20T02:13:25;91301.81;;;14.99;72.35
34506;BME280;20748;42.632;23.198;2022-11-20T02:16:20;91301.38;;;14.97;73.04
34506;BME280;20748;42.632;23.198;2022-11-20T02:18:55;91298.25;;;15.08;73.13
34506;BME280;20748;42.632;23.198;2022-11-20T02:21:32;91311.81;;;14.94;72.81
34506;BME280;20748;42.632;23.198;2022-11-20T02:24:10;91316.91;;;14.86;73.54
34506;BME280;20748;42.632;23.198;2022-11-20T02:26:47;91305.72;;;15.06;72.96
34506;BME280;20748;42.632;23.198;2022-11-20T02:29:25;91312.16;;;15.08;72.75
34506;BME280;20748;42.632;23.198;2022-11-20T02:32:00;91302.25;;;15.01;73.57
34506;BME280;20748;42.632;23.198;2022-11-20T02:34:33;91305.38;;;15.07;73.69
34506;BME280;20748;42.632;23.198;2022-11-20T02:37:05;91316.72;;;14.95;74.09
34506;BME280;20748;42.632;23.198;2022-11-20T02:39:39;91316.59;;;14.88;74.75
34506;BME280;20748;42.632;23.198;2022-11-20T02:42:12;91319.78;;;14.97;74.47
34506;BME280;20748;42.632;23.198;2022-11-20T02:44:45;91327.41;;;14.86;75.16
34506;BME280;20748;42.632;23.198;2022-11-20T02:47:17;91334.13;;;14.84;75.65
34506;BME280;20748;42.632;23.198;2022-11-20T02:49:49;91349.72;;;14.76;76.47
34506;BME280;20748;42.632;23.198;2022-11-20T02:52:22;91356.56;;;14.81;76.11
34506;BME280;20748;42.632;23.198;2022-11-20T02:54:55;91342.84;;;14.88;75.86
34506;BME280;20748;42.632;23.198;2022-11-20T02:57:28;91355.38;;;14.79;76.04
34506;BME280;20748;42.632;23.198;2022-11-20T03:00:00;91345.47;;;14.72;76.96
34506;BME280;20748;42.632;23.198;2022-11-20T03:02:33;91359.00;;;14.90;76.80
34506;BME280;20748;42.632;23.198;2022-11-20T03:05:06;91371.13;;;14.79;76.92
34506;BME280;20748;42.632;23.198;2022-11-20T03:07:38;91364.19;;;14.86;76.75
34506;BME280;20748;42.632;23.198;2022-11-20T03:10:12;91377.81;;;14.76;77.26
34506;BME280;20748;42.632;23.198;2022-11-20T03:12:44;91360.13;;;14.89;77.02
34506;BME280;20748;42.632;23.198;2022-11-20T03:15:17;91367.69;;;14.74;77.72
34506;BME280;20748;42.632;23.198;2022-11-20T03:17:52;91379.16;;;14.70;77.84
34506;BME280;20748;42.632;23.198;2022-11-20T03:20:24;91366.03;;;14.70;77.81
34506;BME280;20748;42.632;23.198;2022-11-20T03:22:57;91372.88;;;14.58;78.05
34506;BME280;20748;42.632;23.198;2022-11-20T03:25:30;91366.09;;;14.57;78.04
34506;BME280;20748;42.632;23.198;2022-11-20T03:28:02;91378.91;;;14.59;78.26
34506;BME280;20748;42.632;23.198;2022-11-20T03:30:35;91376.59;;;14.57;78.25
34506;BME280;20748;42.632;23.198;2022-11-20T03:33:07;91385.00;;;14.63;78.12
34506;BME280;20748;42.632;23.198;2022-11-20T03:35:40;91360.19;;;14.60;77.48
34506;BME280;20748;42.632;23.198;2022-11-20T03:38:12;91378.81;;;14.55;77.62
34506;BME280;20748;42.632;23.198;2022-11-20T03:40:45;91373.72;;;14.62;77.16
34506;BME280;20748;42.632;23.198;2022-11-20T03:43:18;91375.31;;;14.51;77.61
34506;BME280;20748;42.632;23.198;2022-11-20T03:45:50;91374.13;;;14.48;77.71
34506;BME280;20748;42.632;23.198;2022-11-20T03:48:23;91376.00;;;14.48;78.25
34506;BME280;20748;42.632;23.198;2022-11-20T03:51:07;91379.47;;;14.52;78.22
34506;BME280;20748;42.632;23.198;2022-11-20T03:53:40;91376.19;;;14.55;78.31
34506;BME280;20748;42.632;23.198;2022-11-20T03:56:14;91371.44;;;14.45;78.36
34506;BME280;20748;42.632;23.198;2022-11-20T03:58:48;91378.38;;;14.53;77.87
34506;BME280;20748;42.632;23.198;2022-11-20T04:01:21;91372.69;;;14.51;77.72
34506;BME280;20748;42.632;23.198;2022-11-20T04:03:55;91368.97;;;14.52;77.89
34506;BME280;20748;42.632;23.198;2022-11-20T04:06:30;91370.84;;;14.52;78.39
34506;BME280;20748;42.632;23.198;2022-11-20T04:09:03;91367.38;;;14.47;78.21
34506;BME280;20748;42.632;23.198;2022-11-20T04:11:39;91371.66;;;14.40;77.68
34506;BME280;20748;42.632;23.198;2022-11-20T04:14:13;91382.06;;;14.36;77.87
34506;BME280;20748;42.632;23.198;2022-11-20T04:16:46;91377.88;;;14.47;77.82
34506;BME280;20748;42.632;23.198;2022-11-20T04:19:18;91380.97;;;14.37;77.71
34506;BME280;20748;42.632;23.198;2022-11-20T04:21:52;91376.06;;;14.35;77.26
34506;BME280;20748;42.632;23.198;2022-11-20T04:24:26;91390.13;;;14.43;77.69
34506;BME280;20748;42.632;23.198;2022-11-20T04:26:59;91397.50;;;14.38;77.67
34506;BME280;20748;42.632;23.198;2022-11-20T04:29:31;91397.19;;;14.55;77.45
34506;BME280;20748;42.632;23.198;2022-11-20T04:32:04;91392.00;;;14.43;77.74
34506;BME280;20748;42.632;23.198;2022-11-20T04:34:36;91393.69;;;14.35;78.73
34506;BME280;20748;42.632;23.198;2022-11-20T04:37:08;91378.50;;;14.28;79.31
34506;BME280;20748;42.632;23.198;2022-11-20T04:39:41;91388.25;;;14.28;79.65
34506;BME280;20748;42.632;23.198;2022-11-20T04:42:14;91387.75;;;14.38;79.38
34506;BME280;20748;42.632;23.198;2022-11-20T04:45:01;91382.31;;;14.31;79.98
34506;BME280;20748;42.632;23.198;2022-11-20T04:47:34;91389.69;;;14.25;79.55
34506;BME280;20748;42.632;23.198;2022-11-20T04:50:07;91382.25;;;14.43;79.20
34506;BME280;20748;42.632;23.198;2022-11-20T04:52:39;91368.69;;;14.25;80.18
34506;BME280;20748;42.632;23.198;2022-11-20T04:55:12;91369.53;;;14.29;80.56
34506;BME280;20748;42.632;23.198;2022-11-20T04:57:45;91373.66;;;14.14;81.18
34506;BME280;20748;42.632;23.198;2022-11-20T05:00:17;91370.19;;;14.10;81.73
34506;BME280;20748;42.632;23.198;2022-11-20T05:02:50;91358.25;;;14.13;82.10
34506;BME280;20748;42.632;23.198;2022-11-20T05:05:22;91359.50;;;14.03;82.70
34506;BME280;20748;42.632;23.198;2022-11-20T05:07:56;91344.16;;;13.89;83.76
34506;BME280;20748;42.632;23.198;2022-11-20T05:10:28;91327.41;;;13.93;84.06
34506;BME280;20748;42.632;23.198;2022-11-20T05:13:01;91350.38;;;13.84;84.78
34506;BME280;20748;42.632;23.198;2022-11-20T05:15:34;91330.09;;;13.81;85.07
34506;BME280;20748;42.632;23.198;2022-11-20T05:18:06;91321.59;;;13.72;86.28
34506;BME280;20748;42.632;23.198;2022-11-20T05:20:38;91345.06;;;13.80;85.59
34506;BME280;20748;42.632;23.198;2022-11-20T05:23:11;91333.81;;;13.80;85.38
34506;BME280;20748;42.632;23.198;2022-11-20T05:25:43;91328.75;;;13.87;85.47
34506;BME280;20748;42.632;23.198;2022-11-20T05:28:16;91356.41;;;13.85;85.34
34506;BME280;20748;42.632;23.198;2022-11-20T05:30:49;91346.56;;;13.81;85.35
34506;BME280;20748;42.632;23.198;2022-11-20T05:33:21;91341.13;;;13.74;85.46
34506;BME280;20748;42.632;23.198;2022-11-20T05:35:57;91354.06;;;13.67;85.65
34506;BME280;20748;42.632;23.198;2022-11-20T05:38:30;91329.78;;;13.70;85.47
34506;BME280;20748;42.632;23.198;2022-11-20T05:41:04;91326.59;;;13.77;84.87
34506;BME280;20748;42.632;23.198;2022-11-20T05:43:38;91330.00;;;13.77;84.88
34506;BME280;20748;42.632;23.198;2022-11-20T05:46:12;91357.16;;;13.85;83.12
34506;BME280;20748;42.632;23.198;2022-11-20T05:48:46;91357.28;;;13.89;83.63
34506;BME280;20748;42.632;23.198;2022-11-20T05:51:19;91353.69;;;13.81;84.48
34506;BME280;20748;42.632;23.198;2022-11-20T05:53:52;91347.94;;;13.91;84.42
34506;BME280;20748;42.632;23.198;2022-11-20T05:56:24;91353.41;;;13.99;84.28
34506;BME280;20748;42.632;23.198;2022-11-20T05:58:57;91349.53;;;14.08;83.96
34506;BME280;20748;42.632;23.198;2022-11-20T06:01:30;91361.06;;;13.91;84.03
34506;BME280;20748;42.632;23.198;2022-11-20T06:04:02;91349.13;;;14.06;83.13
34506;BME280;20748;42.632;23.198;2022-11-20T06:06:34;91360.44;;;14.10;83.66
34506;BME280;20748;42.632;23.198;2022-11-20T06:09:07;91363.22;;;14.02;83.78
34506;BME280;20748;42.632;23.198;2022-11-20T06:11:39;91363.22;;;14.02;82.98
34506;BME280;20748;42.632;23.198;2022-11-20T06:14:12;91368.13;;;14.03;83.21
34506;BME280;20748;42.632;23.198;2022-11-20T06:16:45;91365.91;;;14.05;83.05
34506;BME280;20748;42.632;23.198;2022-11-20T06:19:17;91369.41;;;14.09;82.84
34506;BME280;20748;42.632;23.198;2022-11-20T06:21:50;91366.47;;;14.11;83.49
34506;BME280;20748;42.632;23.198;2022-11-20T06:24:22;91373.56;;;14.10;82.94
34506;BME280;20748;42.632;23.198;2022-11-20T06:26:57;91376.22;;;14.27;82.60
34506;BME280;20748;42.632;23.198;2022-11-20T06:29:30;91384.13;;;14.14;83.04
34506;BME280;20748;42.632;23.198;2022-11-20T06:32:05;91381.03;;;14.25;82.64
34506;BME280;20748;42.632;23.198;2022-11-20T06:34:37;91392.09;;;14.46;82.25
34506;BME280;20748;42.632;23.198;2022-11-20T06:37:10;91388.28;;;14.44;82.09
34506;BME280;20748;42.632;23.198;2022-11-20T06:39:42;91394.53;;;14.39;82.61
34506;BME280;20748;42.632;23.198;2022-11-20T06:42:14;91417.16;;;14.44;82.53
34506;BME280;20748;42.632;23.198;2022-11-20T06:44:47;91393.38;;;14.24;82.13
34506;BME280;20748;42.632;23.198;2022-11-20T06:47:20;91389.72;;;14.41;81.65
34506;BME280;20748;42.632;23.198;2022-11-20T06:49:52;91403.41;;;14.50;81.41
34506;BME280;20748;42.632;23.198;2022-11-20T06:52:25;91400.06;;;14.50;81.46
34506;BME280;20748;42.632;23.198;2022-11-20T06:54:57;91395.03;;;14.45;81.77
34506;BME280;20748;42.632;23.198;2022-11-20T06:57:30;91403.38;;;14.63;81.24
34506;BME280;20748;42.632;23.198;2022-11-20T07:00:04;91402.53;;;14.59;81.48
34506;BME280;20748;42.632;23.198;2022-11-20T07:02:36;91412.41;;;14.49;82.65
34506;BME280;20748;42.632;23.198;2022-11-20T07:05:09;91415.53;;;14.39;83.46
34506;BME280;20748;42.632;23.198;2022-11-20T07:07:41;91426.66;;;14.20;84.37
34506;BME280;20748;42.632;23.198;2022-11-20T07:10:14;91421.50;;;14.23;83.94
34506;BME280;20748;42.632;23.198;2022-11-20T07:12:49;91425.56;;;14.21;84.88
34506;BME280;20748;42.632;23.198;2022-11-20T07:15:24;91435.22;;;14.04;85.31
34506;BME280;20748;42.632;23.198;2022-11-20T07:17:58;91441.44;;;14.12;85.76
34506;BME280;20748;42.632;23.198;2022-11-20T07:20:30;91430.06;;;14.08;86.16
34506;BME280;20748;42.632;23.198;2022-11-20T07:23:03;91421.00;;;14.05;86.26
34506;BME280;20748;42.632;23.198;2022-11-20T07:25:35;91441.34;;;14.08;86.53
34506;BME280;20748;42.632;23.198;2022-11-20T07:28:08;91439.25;;;14.02;85.60
34506;BME280;20748;42.632;23.198;2022-11-20T07:30:42;91428.44;;;14.03;86.27
34506;BME280;20748;42.632;23.198;2022-11-20T07:33:15;91421.63;;;14.15;84.88
34506;BME280;20748;42.632;23.198;2022-11-20T07:35:47;91417.59;;;13.89;85.00
34506;BME280;20748;42.632;23.198;2022-11-20T07:38:20;91410.78;;;13.88;86.17
34506;BME280;20748;42.632;23.198;2022-11-20T07:40:53;91409.72;;;13.89;85.51
34506;BME280;20748;42.632;23.198;2022-11-20T07:43:26;91400.94;;;13.97;83.90
34506;BME280;20748;42.632;23.198;2022-11-20T07:45:59;91395.56;;;14.06;83.89
34506;BME280;20748;42.632;23.198;2022-11-20T07:48:32;91394.88;;;14.09;83.76
34506;BME280;20748;42.632;23.198;2022-11-20T07:51:04;91401.31;;;14.12;83.20
34506;BME280;20748;42.632;23.198;2022-11-20T07:53:37;91410.13;;;14.19;83.69
34506;BME280;20748;42.632;23.198;2022-11-20T07:56:09;91409.91;;;14.25;83.42
34506;BME280;20748;42.632;23.198;2022-11-20T07:58:41;91423.69;;;14.21;83.22
34506;BME280;20748;42.632;23.198;2022-11-20T08:01:14;91426.28;;;14.34;83.51
34506;BME280;20748;42.632;23.198;2022-11-20T08:03:47;91431.31;;;14.27;83.69
34506;BME280;20748;42.632;23.198;2022-11-20T08:06:19;91428.63;;;14.10;85.26
34506;BME280;20748;42.632;23.198;2022-11-20T08:08:52;91429.94;;;14.17;86.01
34506;BME280;20748;42.632;23.198;2022-11-20T08:11:24;91426.47;;;14.13;86.52
34506;BME280;20748;42.632;23.198;2022-11-20T08:14:15;91439.59;;;14.13;88.20
34506;BME280;20748;42.632;23.198;2022-11-20T08:16:49;91434.25;;;13.96;89.88
34506;BME280;20748;42.632;23.198;2022-11-20T08:19:21;91430.50;;;14.10;90.52
34506;BME280;20748;42.632;23.198;2022-11-20T08:21:55;91425.06;;;14.03;91.90
34506;BME280;20748;42.632;23.198;2022-11-20T08:24:27;91435.25;;;13.92;91.83
34506;BME280;20748;42.632;23.198;2022-11-20T08:27:00;91440.22;;;13.68;92.82
34506;BME280;20748;42.632;23.198;2022-11-20T08:29:32;91435.28;;;13.79;92.94
34506;BME280;20748;42.632;23.198;2022-11-20T08:32:05;91441.56;;;13.62;94.03
34506;BME280;20748;42.632;23.198;2022-11-20T08:34:37;91434.22;;;13.43;95.09
34506;BME280;20748;42.632;23.198;2022-11-20T08:37:10;91460.56;;;13.47;95.86
34506;BME280;20748;42.632;23.198;2022-11-20T08:39:42;91470.25;;;13.34;98.36
34506;BME280;20748;42.632;23.198;2022-11-20T08:42:15;91469.47;;;13.08;100.00
34506;BME280;20748;42.632;23.198;2022-11-20T08:44:47;91467.63;;;13.09;100.00
34506;BME280;20748;42.632;23.198;2022-11-20T08:47:20;91484.53;;;12.99;100.00
34506;BME280;20748;42.632;23.198;2022-11-20T08:49:52;91463.75;;;12.81;100.00
34506;BME280;20748;42.632;23.198;2022-11-20T08:52:25;91472.09;;;12.62;100.00
34506;BME280;20748;42.632;23.198;2022-11-20T08:54:58;91471.25;;;12.70;100.00
34506;BME280;20748;42.632;23.198;2022-11-20T08:57:31;91467.19;;;12.60;100.00
34506;BME280;20748;42.632;23.198;2022-11-20T09:00:05;91464.28;;;12.74;100.00
34506;BME280;20748;42.632;23.198;2022-11-20T09:02:40;91463.38;;;12.58;100.00
34506;BME280;20748;42.632;23.198;2022-11-20T09:05:13;91470.78;;;12.56;100.00
34506;BME280;20748;42.632;23.198;2022-11-20T09:07:45;91474.84;;;12.66;100.00
34506;BME280;20748;42.632;23.198;2022-11-20T09:10:17;91470.66;;;12.52;100.00
34506;BME280;20748;42.632;23.198;2022-11-20T09:12:57;91474.19;;;12.56;100.00
34506;BME280;20748;42.632;23.198;2022-11-20T09:15:30;91475.59;;;12.54;100.00
34506;BME280;20748;42.632;23.198;2022-11-20T09:18:03;91492.97;;;12.37;100.00
34506;BME280;20748;42.632;23.198;2022-11-20T09:20:36;91475.19;;;12.43;100.00
34506;BME280;20748;42.632;23.198;2022-11-20T09:23:09;91473.72;;;12.54;100.00
34506;BME280;20748;42.632;23.198;2022-11-20T09:25:41;91478.34;;;12.36;100.00
34506;BME280;20748;42.632;23.198;2022-11-20T09:28:14;91476.19;;;12.17;100.00
34506;BME280;20748;42.632;23.198;2022-11-20T09:30:47;91479.50;;;12.05;100.00
34506;BME280;20748;42.632;23.198;2022-11-20T09:33:20;91456.69;;;12.14;100.00
34506;BME280;20748;42.632;23.198;2022-11-20T09:35:52;91448.75;;;12.23;100.00
34506;BME280;20748;42.632;23.198;2022-11-20T09:38:24;91426.91;;;12.40;100.00
34506;BME280;20748;42.632;23.198;2022-11-20T09:41:00;91425.38;;;12.39;100.00
34506;BME280;20748;42.632;23.198;2022-11-20T09:43:46;91428.47;;;12.41;100.00
34506;BME280;20748;42.632;23.198;2022-11-20T09:46:27;91440.16;;;12.56;100.00
34506;BME280;20748;42.632;23.198;2022-11-20T09:49:14;91432.16;;;12.53;100.00
34506;BME280;20748;42.632;23.198;2022-11-20T09:51:57;91435.28;;;12.67;100.00
34506;BME280;20748;42.632;23.198;2022-11-20T09:54:32;91421.16;;;12.47;100.00
34506;BME280;20748;42.632;23.198;2022-11-20T09:57:10;91423.16;;;12.62;100.00
34506;BME280;20748;42.632;23.198;2022-11-20T09:59:45;91417.94;;;12.62;100.00
34506;BME280;20748;42.632;23.198;2022-11-20T10:02:26;91416.16;;;12.67;100.00
34506;BME280;20748;42.632;23.198;2022-11-20T10:05:06;91414.69;;;12.91;100.00
34506;BME280;20748;42.632;23.198;2022-11-20T10:07:41;91414.13;;;12.85;100.00
34506;BME280;20748;42.632;23.198;2022-11-20T10:10:16;91400.16;;;12.93;100.00
34506;BME280;20748;42.632;23.198;2022-11-20T10:13:02;91398.31;;;12.94;100.00
34506;BME280;20748;42.632;23.198;2022-11-20T10:15:45;91387.97;;;12.85;100.00
34506;BME280;20748;42.632;23.198;2022-11-20T10:18:31;91393.31;;;12.88;100.00
34506;BME280;20748;42.632;23.198;2022-11-20T10:21:18;91408.69;;;13.02;100.00
34506;BME280;20748;42.632;23.198;2022-11-20T10:24:19;91395.72;;;12.94;100.00
34506;BME280;20748;42.632;23.198;2022-11-20T10:27:03;91407.81;;;12.98;100.00
34506;BME280;20748;42.632;23.198;2022-11-20T10:29:40;91401.25;;;12.80;100.00
34506;BME280;20748;42.632;23.198;2022-11-20T10:32:17;91413.56;;;12.79;100.00
34506;BME280;20748;42.632;23.198;2022-11-20T10:34:53;91414.81;;;12.94;100.00
34506;BME280;20748;42.632;23.198;2022-11-20T10:37:34;91401.81;;;12.85;100.00
34506;BME280;20748;42.632;23.198;2022-11-20T10:40:22;91399.84;;;12.70;100.00
34506;BME280;20748;42.632;23.198;2022-11-20T10:42:57;91413.94;;;12.90;100.00
34506;BME280;20748;42.632;23.198;2022-11-20T10:45:38;91411.72;;;12.80;100.00
34506;BME280;20748;42.632;23.198;2022-11-20T10:48:15;91423.94;;;12.88;100.00
34506;BME280;20748;42.632;23.198;2022-11-20T10:51:12;91421.00;;;12.77;100.00
34506;BME280;20748;42.632;23.198;2022-11-20T10:53:56;91425.22;;;12.57;100.00
34506;BME280;20748;42.632;23.198;2022-11-20T10:56:33;91445.22;;;12.86;100.00
34506;BME280;20748;42.632;23.198;2022-11-20T10:59:28;91515.75;;;12.70;100.00
34506;BME280;20748;42.632;23.198;2022-11-20T11:02:16;91504.91;;;11.74;100.00
34506;BME280;20748;42.632;23.198;2022-11-20T11:04:50;91489.63;;;11.25;100.00
34506;BME280;20748;42.632;23.198;2022-11-20T11:07:27;91458.56;;;11.02;100.00
34506;BME280;20748;42.632;23.198;2022-11-20T11:10:14;91438.34;;;10.81;100.00
34506;BME280;20748;42.632;23.198;2022-11-20T11:12:47;91438.53;;;10.76;100.00
34506;BME280;20748;42.632;23.198;2022-11-20T11:15:28;91435.63;;;10.69;100.00
34506;BME280;20748;42.632;23.198;2022-11-20T11:18:00;91450.03;;;10.75;100.00
34506;BME280;20748;42.632;23.198;2022-11-20T11:20:33;91445.75;;;10.70;100.00
34506;BME280;20748;42.632;23.198;2022-11-20T11:23:10;91427.38;;;10.67;100.00
34506;BME280;20748;42.632;23.198;2022-11-20T11:26:00;91424.47;;;10.59;100.00
34506;BME280;20748;42.632;23.198;2022-11-20T11:28:33;91429.56;;;10.56;100.00
34506;BME280;20748;42.632;23.198;2022-11-20T11:31:06;91426.16;;;10.55;100.00
34506;BME280;20748;42.632;23.198;2022-11-20T11:33:38;91427.53;;;10.61;100.00
34506;BME280;20748;42.632;23.198;2022-11-20T11:36:17;91420.50;;;10.53;100.00
34506;BME280;20748;42.632;23.198;2022-11-20T11:38:51;91415.44;;;10.57;100.00
34506;BME280;20748;42.632;23.198;2022-11-20T11:41:32;91446.88;;;10.60;100.00
34506;BME280;20748;42.632;23.198;2022-11-20T11:44:16;91440.09;;;10.68;100.00
34506;BME280;20748;42.632;23.198;2022-11-20T11:47:10;91447.13;;;10.77;100.00
34506;BME280;20748;42.632;23.198;2022-11-20T11:49:43;91435.44;;;10.83;100.00
34506;BME280;20748;42.632;23.198;2022-11-20T11:52:17;91436.06;;;10.80;100.00
34506;BME280;20748;42.632;23.198;2022-11-20T11:54:53;91450.34;;;10.82;100.00
34506;BME280;20748;42.632;23.198;2022-11-20T11:57:33;91445.13;;;10.82;100.00
34506;BME280;20748;42.632;23.198;2022-11-20T12:00:12;91444.00;;;10.92;99.26
34506;BME280;20748;42.632;23.198;2022-11-20T12:02:57;91429.78;;;10.81;98.58
34506;BME280;20748;42.632;23.198;2022-11-20T12:05:38;91426.97;;;10.95;99.91
34506;BME280;20748;42.632;23.198;2022-11-20T12:08:18;91415.91;;;10.89;98.57
34506;BME280;20748;42.632;23.198;2022-11-20T12:10:57;91422.22;;;10.88;99.39
34506;BME280;20748;42.632;23.198;2022-11-20T12:13:44;91421.75;;;10.95;98.95
34506;BME280;20748;42.632;23.198;2022-11-20T12:16:20;91421.91;;;10.90;99.84
34506;BME280;20748;42.632;23.198;2022-11-20T12:18:53;91410.34;;;10.99;100.00
34506;BME280;20748;42.632;23.198;2022-11-20T12:21:32;91415.47;;;10.87;99.26
34506;BME280;20748;42.632;23.198;2022-11-20T12:24:27;91417.31;;;10.86;98.24
34506;BME280;20748;42.632;23.198;2022-11-20T12:27:22;91406.72;;;10.83;100.00
34506;BME280;20748;42.632;23.198;2022-11-20T12:30:01;91357.09;;;10.92;99.79
34506;BME280;20748;42.632;23.198;2022-11-20T12:33:04;91359.41;;;10.93;100.00
34506;BME280;20748;42.632;23.198;2022-11-20T12:35:47;91348.97;;;10.93;99.67
34506;BME280;20748;42.632;23.198;2022-11-20T12:38:41;91364.47;;;10.98;99.36
34506;BME280;20748;42.632;23.198;2022-11-20T12:41:23;91367.31;;;11.06;98.32
34506;BME280;20748;42.632;23.198;2022-11-20T12:44:29;91379.72;;;11.18;94.27
34506;BME280;20748;42.632;23.198;2022-11-20T12:47:34;91379.13;;;11.33;94.02
34506;BME280;20748;42.632;23.198;2022-11-20T12:50:16;91363.47;;;11.33;94.16
34506;BME280;20748;42.632;23.198;2022-11-20T12:52:55;91374.31;;;11.44;95.37
34506;BME280;20748;42.632;23.198;2022-11-20T12:55:36;91364.94;;;11.43;97.81
34506;BME280;20748;42.632;23.198;2022-11-20T12:58:19;91365.22;;;11.50;100.00
34506;BME280;20748;42.632;23.198;2022-11-20T13:01:00;91355.56;;;11.63;100.00
34506;BME280;20748;42.632;23.198;2022-11-20T13:03:46;91344.34;;;11.84;100.00
34506;BME280;20748;42.632;23.198;2022-11-20T13:06:21;91330.88;;;11.94;100.00
34506;BME280;20748;42.632;23.198;2022-11-20T13:08:56;91324.34;;;12.01;100.00
34506;BME280;20748;42.632;23.198;2022-11-20T13:11:33;91346.53;;;12.16;100.00
34506;BME280;20748;42.632;23.198;2022-11-20T13:14:16;91360.13;;;12.09;100.00
34506;BME280;20748;42.632;23.198;2022-11-20T13:16:59;91362.97;;;12.16;100.00
34506;BME280;20748;42.632;23.198;2022-11-20T13:19:38;91365.28;;;12.18;100.00
34506;BME280;20748;42.632;23.198;2022-11-20T13:22:11;91373.47;;;12.29;100.00
34506;BME280;20748;42.632;23.198;2022-11-20T13:24:50;91377.44;;;12.35;100.00
34506;BME280;20748;42.632;23.198;2022-11-20T13:27:23;91366.31;;;12.38;100.00
34506;BME280;20748;42.632;23.198;2022-11-20T13:30:02;91368.50;;;12.48;100.00
34506;BME280;20748;42.632;23.198;2022-11-20T13:32:35;91373.56;;;12.66;100.00